createdAt,value
2019-04-06T00:01:13.248Z,100.00
2019-04-06T00:03:39.960Z,100.00
2019-04-06T00:06:06.476Z,100.00
2019-04-06T00:08:33.028Z,100.00
2019-04-06T00:10:59.517Z,100.00
2019-04-06T00:13:26.031Z,100.00
2019-04-06T00:15:52.998Z,100.00
2019-04-06T00:18:19.468Z,100.00
2019-04-06T00:20:45.959Z,100.00
2019-04-06T00:23:12.676Z,100.00
2019-04-06T00:25:44.592Z,100.00
2019-04-06T00:28:09.178Z,100.00
2019-04-06T00:30:45.430Z,100.00
2019-04-06T00:33:14.278Z,100.00
2019-04-06T00:35:41.028Z,100.00
2019-04-06T00:38:07.938Z,100.00
2019-04-06T00:40:34.457Z,100.00
2019-04-06T00:43:01.063Z,100.00
2019-04-06T00:45:27.595Z,100.00
2019-04-06T00:47:56.099Z,100.00
2019-04-06T00:50:22.796Z,100.00
2019-04-06T00:52:49.390Z,100.00
2019-04-06T00:55:27.466Z,100.00
2019-04-06T00:57:53.979Z,100.00
2019-04-06T01:00:20.857Z,100.00
2019-04-06T01:02:47.404Z,100.00
2019-04-06T01:05:14.066Z,100.00
2019-04-06T01:07:40.620Z,100.00
2019-04-06T01:10:07.428Z,100.00
2019-04-06T01:12:33.966Z,100.00
2019-04-06T01:15:00.738Z,100.00
2019-04-06T01:17:27.495Z,100.00
2019-04-06T01:19:54.087Z,100.00
2019-04-06T01:22:20.953Z,100.00
2019-04-06T01:24:47.441Z,100.00
2019-04-06T01:27:14.994Z,100.00
2019-04-06T01:29:41.646Z,100.00
2019-04-06T01:32:08.299Z,100.00
2019-04-06T01:34:35.037Z,100.00
2019-04-06T01:37:01.888Z,100.00
2019-04-06T01:39:28.368Z,100.00
2019-04-06T01:41:54.957Z,100.00
2019-04-06T01:44:21.442Z,100.00
2019-04-06T01:46:47.916Z,100.00
2019-04-06T01:49:14.763Z,100.00
2019-04-06T01:51:41.256Z,100.00
2019-04-06T01:54:07.814Z,100.00
2019-04-06T01:56:34.278Z,100.00
2019-04-06T01:59:00.889Z,100.00
2019-04-06T02:01:31.621Z,100.00
2019-04-06T02:03:58.406Z,100.00
2019-04-06T02:06:24.961Z,100.00
2019-04-06T02:08:51.490Z,100.00
2019-04-06T02:11:18.000Z,100.00
2019-04-06T02:13:44.510Z,100.00
2019-04-06T02:16:11.013Z,100.00
2019-04-06T02:18:37.535Z,100.00
2019-04-06T02:21:04.042Z,100.00
2019-04-06T02:23:30.509Z,100.00
2019-04-06T02:25:57.351Z,100.00
2019-04-06T02:28:23.848Z,100.00
2019-04-06T02:31:10.083Z,100.00
2019-04-06T02:33:53.940Z,100.00
2019-04-06T02:36:42.040Z,100.00
2019-04-06T02:39:15.013Z,100.00
2019-04-06T02:41:44.387Z,100.00
2019-04-06T02:44:10.885Z,100.00
2019-04-06T02:46:37.753Z,100.00
2019-04-06T02:49:04.337Z,100.00
2019-04-06T02:51:31.347Z,100.00
2019-04-06T02:53:58.151Z,100.00
2019-04-06T02:56:24.738Z,100.00
2019-04-06T02:58:51.653Z,100.00
2019-04-06T03:01:18.288Z,100.00
2019-04-06T03:03:44.766Z,100.00
2019-04-06T03:06:11.579Z,100.00
2019-04-06T03:08:38.312Z,100.00
2019-04-06T03:11:04.812Z,100.00
2019-04-06T03:13:31.511Z,100.00
2019-04-06T03:15:58.476Z,100.00
2019-04-06T03:18:25.156Z,100.00
2019-04-06T03:20:51.850Z,100.00
2019-04-06T03:23:18.431Z,100.00
2019-04-06T03:25:45.084Z,100.00
2019-04-06T03:28:11.861Z,100.00
2019-04-06T03:30:38.452Z,100.00
2019-04-06T03:33:05.112Z,100.00
2019-04-06T03:35:31.650Z,100.00
2019-04-06T03:37:58.248Z,100.00
2019-04-06T03:40:25.084Z,100.00
2019-04-06T03:42:51.629Z,100.00
2019-04-06T03:45:18.180Z,100.00
2019-04-06T03:47:44.801Z,100.00
2019-04-06T03:50:13.738Z,100.00
2019-04-06T03:52:40.667Z,100.00
2019-04-06T03:55:07.399Z,100.00
2019-04-06T03:57:33.896Z,100.00
2019-04-06T04:00:01.039Z,100.00
2019-04-06T04:02:28.767Z,100.00
2019-04-06T04:04:55.310Z,100.00
2019-04-06T04:07:21.840Z,100.00
2019-04-06T04:09:48.593Z,100.00
2019-04-06T04:12:15.233Z,100.00
2019-04-06T04:14:41.945Z,100.00
2019-04-06T04:17:08.428Z,100.00
2019-04-06T04:19:35.326Z,100.00
2019-04-06T04:22:01.884Z,100.00
2019-04-06T04:24:28.509Z,100.00
2019-04-06T04:26:55.455Z,100.00
2019-04-06T04:29:21.944Z,100.00
2019-04-06T04:31:49.156Z,100.00
2019-04-06T04:34:16.011Z,100.00
2019-04-06T04:36:42.525Z,100.00
2019-04-06T04:39:09.101Z,100.00
2019-04-06T04:41:35.617Z,100.00
2019-04-06T04:44:02.332Z,100.00
2019-04-06T04:46:29.164Z,100.00
2019-04-06T04:48:56.063Z,100.00
2019-04-06T04:51:22.755Z,100.00
2019-04-06T04:53:49.435Z,100.00
2019-04-06T04:56:16.148Z,100.00
2019-04-06T04:58:42.780Z,100.00
2019-04-06T05:01:11.351Z,100.00
2019-04-06T05:03:37.947Z,100.00
2019-04-06T05:06:04.479Z,100.00
2019-04-06T05:08:30.988Z,100.00
2019-04-06T05:10:57.897Z,100.00
2019-04-06T05:13:24.914Z,100.00
2019-04-06T05:16:20.169Z,100.00
2019-04-06T05:18:46.772Z,100.00
2019-04-06T05:21:13.423Z,100.00
2019-04-06T05:23:44.060Z,100.00
2019-04-06T05:26:10.562Z,100.00
2019-04-06T05:28:37.098Z,100.00
2019-04-06T05:31:03.744Z,100.00
2019-04-06T05:33:30.490Z,100.00
2019-04-06T05:35:57.086Z,100.00
2019-04-06T05:38:23.675Z,100.00
2019-04-06T05:40:50.894Z,100.00
2019-04-06T05:43:17.826Z,100.00
2019-04-06T05:45:44.419Z,100.00
2019-04-06T05:48:11.217Z,100.00
2019-04-06T05:50:37.766Z,100.00
2019-04-06T05:53:04.339Z,100.00
2019-04-06T05:55:31.018Z,100.00
2019-04-06T05:58:03.751Z,100.00
2019-04-06T06:00:26.386Z,100.00
2019-04-06T06:02:53.013Z,100.00
2019-04-06T06:05:19.708Z,100.00
2019-04-06T06:07:46.250Z,100.00
2019-04-06T06:10:14.007Z,100.00
2019-04-06T06:12:41.391Z,100.00
2019-04-06T06:15:08.222Z,100.00
2019-04-06T06:17:36.414Z,100.00
2019-04-06T06:20:03.375Z,100.00
2019-04-06T06:22:30.235Z,100.00
2019-04-06T06:24:57.476Z,100.00
2019-04-06T06:27:24.375Z,100.00
2019-04-06T06:29:51.068Z,100.00
2019-04-06T06:32:17.697Z,100.00
2019-04-06T06:34:44.452Z,100.00
2019-04-06T06:37:11.293Z,99.90
2019-04-06T06:40:36.957Z,97.90
2019-04-06T06:43:06.516Z,95.74
2019-04-06T06:45:33.034Z,94.11
2019-04-06T06:48:02.177Z,92.93
2019-04-06T06:50:30.139Z,92.80
2019-04-06T06:52:57.103Z,93.42
2019-04-06T06:55:23.721Z,93.70
2019-04-06T06:57:50.337Z,93.94
2019-04-06T07:00:17.296Z,94.38
2019-04-06T07:02:45.899Z,94.96
2019-04-06T07:05:12.812Z,94.80
2019-04-06T07:07:39.516Z,93.86
2019-04-06T07:10:06.554Z,90.99
2019-04-06T07:12:33.169Z,89.89
2019-04-06T07:14:59.999Z,89.41
2019-04-06T07:17:26.871Z,88.80
2019-04-06T07:19:53.887Z,88.10
2019-04-06T07:22:23.152Z,88.15
2019-04-06T07:24:50.360Z,88.24
2019-04-06T07:27:16.980Z,88.58
2019-04-06T07:29:43.508Z,87.98
2019-04-06T07:32:10.134Z,88.33
2019-04-06T07:34:36.812Z,88.04
2019-04-06T07:37:03.876Z,88.01
2019-04-06T07:39:30.641Z,87.61
2019-04-06T07:41:57.277Z,87.61
2019-04-06T07:44:23.975Z,89.28
2019-04-06T07:46:50.955Z,89.13
2019-04-06T07:49:17.526Z,87.88
2019-04-06T07:51:44.208Z,87.83
2019-04-06T07:54:10.985Z,88.40
2019-04-06T07:56:37.952Z,88.38
2019-04-06T07:59:04.484Z,88.35
2019-04-06T08:01:31.285Z,87.05
2019-04-06T08:03:58.122Z,86.20
2019-04-06T08:06:25.156Z,84.72
2019-04-06T08:08:52.404Z,83.00
2019-04-06T08:11:19.303Z,81.58
2019-04-06T08:13:46.340Z,80.27
2019-04-06T08:16:13.323Z,79.80
2019-04-06T08:18:39.940Z,79.44
2019-04-06T08:21:06.529Z,79.41
2019-04-06T08:23:33.224Z,77.98
2019-04-06T08:25:59.841Z,77.12
2019-04-06T08:28:26.531Z,78.85
2019-04-06T08:30:57.517Z,76.85
2019-04-06T08:33:24.090Z,74.72
2019-04-06T08:35:50.816Z,72.91
2019-04-06T08:38:17.443Z,73.46
2019-04-06T08:40:44.672Z,75.22
2019-04-06T08:43:11.210Z,75.92
2019-04-06T08:45:37.747Z,76.33
2019-04-06T08:48:05.630Z,75.83
2019-04-06T08:50:33.461Z,75.29
2019-04-06T08:53:00.199Z,75.28
2019-04-06T08:55:27.087Z,72.99
2019-04-06T08:57:53.833Z,71.83
2019-04-06T09:00:20.851Z,71.50
2019-04-06T09:02:47.434Z,68.39
2019-04-06T09:05:14.665Z,66.95
2019-04-06T09:07:41.188Z,67.14
2019-04-06T09:10:08.579Z,67.85
2019-04-06T09:12:35.107Z,66.95
2019-04-06T09:15:01.873Z,65.16
2019-04-06T09:17:28.510Z,64.16
2019-04-06T09:19:55.121Z,64.27
2019-04-06T09:22:21.873Z,63.05
2019-04-06T09:24:48.385Z,61.40
2019-04-06T09:27:14.896Z,61.46
2019-04-06T09:29:41.640Z,61.97
2019-04-06T09:32:10.926Z,62.91
2019-04-06T09:34:37.697Z,61.40
2019-04-06T09:37:04.222Z,62.15
2019-04-06T09:39:30.785Z,62.65
2019-04-06T09:41:58.360Z,61.85
2019-04-06T09:44:45.711Z,63.12
2019-04-06T09:47:30.391Z,62.91
2019-04-06T09:50:31.783Z,62.22
2019-04-06T09:53:23.821Z,62.14
2019-04-06T09:56:10.079Z,62.36
2019-04-06T09:58:43.525Z,64.00
2019-04-06T10:01:38.138Z,63.95
2019-04-06T10:04:23.100Z,61.31
2019-04-06T10:07:09.289Z,58.16
2019-04-06T10:09:55.222Z,60.28
2019-04-06T10:12:49.297Z,59.76
2019-04-06T10:15:28.475Z,59.76
2019-04-06T10:18:15.036Z,59.66
2019-04-06T10:20:54.789Z,59.87
2019-04-06T10:23:34.008Z,58.73
2019-04-06T10:26:38.542Z,56.80
2019-04-06T10:29:17.396Z,56.16
2019-04-06T10:31:59.480Z,55.85
2019-04-06T10:34:45.752Z,54.45
2019-04-06T10:37:33.242Z,53.73
2019-04-06T10:40:12.401Z,52.86
2019-04-06T10:42:54.164Z,51.78
2019-04-06T10:45:30.875Z,50.21
2019-04-06T10:48:23.952Z,51.42
2019-04-06T10:51:08.880Z,50.67
2019-04-06T10:54:04.130Z,51.22
2019-04-06T10:56:44.837Z,51.01
2019-04-06T10:59:31.844Z,49.71
2019-04-06T11:02:22.520Z,48.79
2019-04-06T11:04:57.763Z,44.79
2019-04-06T11:07:30.387Z,45.44
2019-04-06T11:10:19.165Z,46.02
2019-04-06T11:12:53.606Z,45.07
2019-04-06T11:15:40.806Z,46.40
2019-04-06T11:18:25.488Z,46.14
2019-04-06T11:21:23.332Z,44.57
2019-04-06T11:24:04.131Z,45.45
2019-04-06T11:26:59.020Z,46.29
2019-04-06T11:29:32.326Z,44.61
2019-04-06T11:32:16.761Z,45.15
2019-04-06T11:34:58.968Z,43.66
2019-04-06T11:37:51.061Z,45.38
2019-04-06T11:40:34.862Z,43.95
2019-04-06T11:43:11.008Z,44.57
2019-04-06T11:45:48.964Z,44.46
2019-04-06T11:48:35.097Z,42.34
2019-04-06T11:51:24.026Z,42.24
2019-04-06T11:54:19.029Z,42.20
2019-04-06T11:57:03.531Z,40.84
2019-04-06T11:59:41.554Z,42.42
2019-04-06T12:02:27.962Z,42.35
2019-04-06T12:05:09.959Z,41.49
2019-04-06T12:07:49.945Z,41.47
2019-04-06T12:10:41.767Z,40.10
2019-04-06T12:13:36.653Z,41.31
2019-04-06T12:16:24.262Z,42.98
2019-04-06T12:19:07.927Z,41.52
2019-04-06T12:21:44.906Z,40.22
2019-04-06T12:24:28.607Z,40.33
2019-04-06T12:27:08.780Z,38.46
2019-04-06T12:29:52.038Z,38.41
2019-04-06T12:32:29.395Z,40.17
2019-04-06T12:35:14.160Z,40.36
2019-04-06T12:38:00.795Z,39.70
2019-04-06T12:40:35.073Z,38.48
2019-04-06T12:43:31.055Z,39.28
2019-04-06T12:46:20.258Z,39.03
2019-04-06T12:49:08.602Z,40.25
2019-04-06T12:51:43.425Z,40.94
2019-04-06T12:54:32.783Z,39.71
2019-04-06T12:57:21.872Z,38.74
2019-04-06T13:00:08.951Z,39.77
2019-04-06T13:02:55.353Z,39.11
2019-04-06T13:05:44.537Z,39.85
2019-04-06T13:08:22.032Z,40.05
2019-04-06T13:11:01.441Z,39.46
2019-04-06T13:16:31.737Z,39.63
2019-04-06T13:19:17.008Z,39.11
2019-04-06T13:22:01.985Z,38.94
2019-04-06T13:24:50.855Z,38.82
2019-04-06T13:27:41.023Z,39.21
2019-04-06T13:30:20.781Z,39.13
2019-04-06T13:33:01.418Z,39.00
2019-04-06T13:35:43.349Z,39.91
2019-04-06T13:38:22.508Z,39.08
2019-04-06T13:41:20.575Z,38.13
2019-04-06T13:43:54.876Z,38.77
2019-04-06T13:46:37.009Z,39.38
2019-04-06T13:49:09.938Z,38.64
2019-04-06T13:52:04.266Z,39.64
2019-04-06T13:54:48.915Z,39.95
2019-04-06T13:57:23.616Z,39.13
2019-04-06T14:00:10.420Z,39.66
2019-04-06T14:02:42.807Z,40.18
2019-04-06T14:05:28.055Z,39.30
2019-04-06T14:08:07.508Z,38.65
2019-04-06T14:10:52.133Z,39.33
2019-04-06T14:13:35.201Z,39.61
2019-04-06T14:16:27.923Z,38.87
2019-04-06T14:19:15.377Z,39.60
2019-04-06T14:22:01.411Z,39.20
2019-04-06T14:24:38.207Z,40.43
2019-04-06T14:27:27.399Z,40.14
2019-04-06T14:30:11.283Z,40.33
2019-04-06T14:32:57.048Z,40.87
2019-04-06T14:35:41.205Z,40.11
2019-04-06T14:38:26.833Z,40.64
2019-04-06T14:41:05.664Z,39.86
2019-04-06T14:43:48.982Z,40.51
2019-04-06T14:46:33.848Z,40.84
2019-04-06T14:49:31.264Z,40.21
2019-04-06T14:52:04.578Z,40.26
2019-04-06T14:54:50.972Z,41.05
2019-04-06T14:57:28.780Z,40.98
2019-04-06T15:00:11.352Z,40.48
2019-04-06T15:02:57.406Z,40.68
2019-04-06T15:05:44.094Z,41.08
2019-04-06T15:08:21.109Z,41.13
2019-04-06T15:11:01.066Z,41.65
2019-04-06T15:13:50.634Z,41.46
2019-04-06T15:16:23.920Z,41.98
2019-04-06T15:19:10.490Z,42.39
2019-04-06T15:22:14.876Z,42.98
2019-04-06T15:25:01.119Z,43.15
2019-04-06T15:27:37.366Z,42.83
2019-04-06T15:30:42.569Z,42.99
2019-04-06T15:33:35.292Z,42.92
2019-04-06T15:36:27.929Z,44.60
2019-04-06T15:39:14.174Z,44.77
2019-04-06T15:44:46.321Z,45.38
2019-04-06T15:47:38.676Z,46.07
2019-04-06T15:50:28.087Z,46.25
2019-04-06T15:53:17.293Z,47.20
2019-04-06T15:56:05.700Z,47.22
2019-04-06T15:58:57.954Z,47.82
2019-04-06T16:01:33.315Z,48.49
2019-04-06T16:04:26.434Z,48.26
2019-04-06T16:07:05.834Z,48.94
2019-04-06T16:09:58.139Z,49.29
2019-04-06T16:12:41.590Z,49.54
2019-04-06T16:15:33.844Z,50.38
2019-04-06T16:18:07.229Z,50.41
2019-04-06T16:20:48.934Z,50.54
2019-04-06T16:23:38.093Z,50.94
2019-04-06T16:26:20.290Z,51.17
2019-04-06T16:29:13.186Z,51.28
2019-04-06T16:31:57.896Z,51.57
2019-04-06T16:34:36.126Z,51.99
2019-04-06T16:37:10.190Z,52.47
2019-04-06T16:39:44.775Z,52.67
2019-04-06T16:42:31.402Z,52.84
2019-04-06T16:45:31.407Z,52.83
2019-04-06T16:48:35.072Z,52.91
2019-04-06T16:51:09.993Z,53.21
2019-04-06T16:54:14.609Z,53.42
2019-04-06T16:56:53.344Z,53.36
2019-04-06T16:59:30.859Z,53.75
2019-04-06T17:02:24.382Z,53.62
2019-04-06T17:05:06.644Z,53.90
2019-04-06T17:07:51.385Z,54.07
2019-04-06T17:10:35.819Z,54.25
2019-04-06T17:13:20.899Z,54.60
2019-04-06T17:16:05.692Z,54.75
2019-04-06T17:18:46.243Z,54.62
2019-04-06T17:21:38.151Z,54.93
2019-04-06T17:24:12.702Z,55.29
2019-04-06T17:27:02.122Z,55.38
2019-04-06T17:29:53.252Z,55.38
2019-04-06T17:32:38.343Z,55.86
2019-04-06T17:35:14.080Z,56.41
2019-04-06T17:38:02.896Z,56.84
2019-04-06T17:40:43.625Z,57.32
2019-04-06T17:43:35.166Z,57.53
2019-04-06T17:46:17.370Z,57.72
2019-04-06T17:48:55.114Z,57.58
2019-04-06T17:51:47.518Z,57.35
2019-04-06T17:54:38.741Z,57.65
2019-04-06T17:57:14.145Z,57.73
2019-04-06T17:59:59.546Z,58.25
2019-04-06T18:02:48.740Z,58.54
2019-04-06T18:05:30.897Z,57.99
2019-04-06T18:08:15.703Z,57.51
2019-04-06T18:11:07.865Z,56.96
2019-04-06T18:14:03.121Z,56.23
2019-04-06T18:16:33.193Z,55.83
2019-04-06T18:19:00.313Z,55.57
2019-04-06T18:21:27.228Z,55.44
2019-04-06T18:23:54.296Z,55.45
2019-04-06T18:26:21.390Z,55.35
2019-04-06T18:28:48.390Z,55.64
2019-04-06T18:31:37.264Z,55.67
2019-04-06T18:34:04.217Z,55.97
2019-04-06T18:36:48.391Z,56.07
2019-04-06T18:39:15.209Z,56.08
2019-04-06T18:41:41.701Z,56.09
2019-04-06T18:44:09.080Z,56.02
2019-04-06T18:46:35.637Z,55.47
2019-04-06T18:49:03.267Z,55.28
2019-04-06T18:51:29.944Z,55.10
2019-04-06T18:53:56.613Z,54.92
2019-04-06T18:56:23.510Z,55.01
2019-04-06T18:58:51.851Z,54.56
2019-04-06T19:01:18.618Z,54.34
2019-04-06T19:03:46.413Z,54.05
2019-04-06T19:06:12.934Z,54.14
2019-04-06T19:08:42.076Z,54.31
2019-04-06T19:11:08.636Z,54.28
2019-04-06T19:13:35.465Z,54.68
2019-04-06T19:16:02.055Z,54.46
2019-04-06T19:18:29.454Z,54.45
2019-04-06T19:20:56.512Z,54.51
2019-04-06T19:23:23.066Z,54.46
2019-04-06T19:25:49.981Z,54.72
2019-04-06T19:28:16.637Z,54.74
2019-04-06T19:30:43.184Z,54.62
2019-04-06T19:33:11.071Z,54.52
2019-04-06T19:35:38.447Z,54.54
2019-04-06T19:38:05.024Z,54.71
2019-04-06T19:40:31.939Z,54.66
2019-04-06T19:42:58.955Z,54.99
2019-04-06T19:45:25.925Z,55.22
2019-04-06T19:48:03.000Z,55.53
2019-04-06T19:50:29.646Z,55.87
2019-04-06T19:52:56.337Z,56.14
2019-04-06T19:55:23.261Z,56.29
2019-04-06T19:57:49.944Z,56.26
2019-04-06T20:00:16.856Z,56.01
2019-04-06T20:02:43.541Z,55.99
2019-04-06T20:05:10.526Z,56.50
2019-04-06T20:07:38.081Z,56.36
2019-04-06T20:10:05.406Z,56.49
2019-04-06T20:12:32.261Z,57.06
2019-04-06T20:14:58.847Z,57.67
2019-04-06T20:17:25.534Z,57.97
2019-04-06T20:19:52.052Z,57.79
2019-04-06T20:22:19.157Z,57.59
2019-04-06T20:24:46.036Z,57.68
2019-04-06T20:27:12.638Z,57.54
2019-04-06T20:29:40.791Z,57.25
2019-04-06T20:32:07.745Z,57.36
2019-04-06T20:34:34.509Z,57.19
2019-04-06T20:37:01.853Z,57.20
2019-04-06T20:39:28.539Z,57.20
2019-04-06T20:41:55.101Z,57.19
2019-04-06T20:44:22.235Z,57.35
2019-04-06T20:46:49.430Z,57.51
2019-04-06T20:49:16.470Z,57.83
2019-04-06T20:51:43.361Z,58.14
2019-04-06T20:54:10.734Z,58.35
2019-04-06T20:56:37.491Z,58.40
2019-04-06T20:59:07.579Z,58.50
2019-04-06T21:01:34.131Z,58.53
2019-04-06T21:04:02.775Z,58.61
2019-04-06T21:06:32.270Z,58.89
2019-04-06T21:09:00.298Z,58.58
2019-04-06T21:11:26.809Z,58.42
2019-04-06T21:13:53.893Z,58.33
2019-04-06T21:16:23.107Z,58.28
2019-04-06T21:19:01.395Z,58.54
2019-04-06T21:21:25.898Z,58.41
2019-04-06T21:23:52.974Z,58.61
2019-04-06T21:26:21.402Z,58.81
2019-04-06T21:28:48.755Z,59.08
2019-04-06T21:31:17.979Z,59.59
2019-04-06T21:34:14.381Z,60.04
2019-04-06T21:36:39.147Z,60.61
2019-04-06T21:39:06.332Z,60.92
2019-04-06T21:41:33.360Z,61.04
2019-04-06T21:44:02.340Z,61.32
2019-04-06T21:46:32.650Z,61.52
2019-04-06T21:49:05.506Z,61.90
2019-04-06T21:51:32.633Z,61.89
2019-04-06T21:54:01.376Z,61.79
2019-04-06T21:56:28.191Z,61.55
2019-04-06T21:59:06.621Z,61.60
2019-04-06T22:01:51.274Z,61.73
2019-04-06T22:04:25.972Z,61.91
2019-04-06T22:06:46.538Z,62.22
2019-04-06T22:09:32.354Z,62.42
2019-04-06T22:11:59.400Z,62.53
2019-04-06T22:14:37.570Z,62.33
2019-04-06T22:17:06.284Z,62.06
2019-04-06T22:19:33.254Z,62.05
2019-04-06T22:21:59.853Z,62.25
2019-04-06T22:24:29.444Z,62.16
2019-04-06T22:26:58.334Z,62.10
2019-04-06T22:29:29.823Z,62.21
2019-04-06T22:31:56.511Z,62.51
2019-04-06T22:34:34.850Z,62.73
2019-04-06T22:36:52.661Z,62.73
2019-04-06T22:39:20.321Z,62.89
2019-04-06T22:41:52.463Z,62.91
2019-04-06T22:44:19.222Z,63.29
2019-04-06T22:46:48.678Z,63.72
2019-04-06T22:49:16.101Z,63.92
2019-04-06T22:51:43.455Z,63.83
2019-04-06T22:54:43.594Z,63.96
2019-04-06T22:57:10.298Z,63.96
2019-04-06T22:59:41.545Z,63.97
2019-04-06T23:02:11.338Z,64.27
2019-04-06T23:04:59.277Z,64.47
2019-04-06T23:07:32.596Z,64.29
2019-04-06T23:09:59.932Z,64.50
2019-04-06T23:12:29.036Z,64.60
2019-04-06T23:14:59.158Z,64.70
2019-04-06T23:17:27.379Z,64.93
2019-04-06T23:19:54.636Z,64.92
2019-04-06T23:22:21.779Z,64.85
2019-04-06T23:24:51.420Z,64.79
2019-04-06T23:27:35.398Z,64.93
2019-04-06T23:30:10.568Z,65.04
2019-04-06T23:32:41.012Z,64.94
2019-04-06T23:35:08.199Z,65.25
2019-04-06T23:37:35.476Z,65.40
2019-04-06T23:40:02.632Z,66.53
2019-04-06T23:42:32.633Z,66.87
2019-04-06T23:45:05.026Z,67.09
2019-04-06T23:47:40.002Z,67.54
2019-04-06T23:50:09.391Z,67.48
2019-04-06T23:52:36.479Z,67.20
2019-04-06T23:55:03.720Z,66.82
2019-04-06T23:57:33.236Z,66.67
